sensor_id;sensor_type;location;lat;lon;timestamp;pressure;altitude;pressure_sealevel;temperature;humidity
45071;BME280;30836;48.906;9.140;2022-08-11T00:00:13;990.30;;;27.02;27.50
45071;BME280;30836;48.906;9.140;2022-08-11T00:01:19;990.32;;;26.92;27.58
45071;BME280;30836;48.906;9.140;2022-08-11T00:03:34;990.36;;;26.82;27.63
45071;BME280;30836;48.906;9.140;2022-08-11T00:04:35;990.34;;;26.79;27.67
45071;BME280;30836;48.906;9.140;2022-08-11T00:06:48;990.36;;;26.68;27.82
45071;BME280;30836;48.906;9.140;2022-08-11T00:07:53;990.34;;;26.64;27.86
45071;BME280;30836;48.906;9.140;2022-08-11T00:08:04;990.32;;;26.57;27.90
45071;BME280;30836;48.906;9.140;2022-08-11T00:09:09;990.30;;;26.58;28.04
45071;BME280;30836;48.906;9.140;2022-08-11T00:10:13;990.32;;;26.55;28.20
45071;BME280;30836;48.906;9.140;2022-08-11T00:11:15;990.30;;;26.49;28.22
45071;BME280;30836;48.906;9.140;2022-08-11T00:12:17;990.32;;;26.43;28.39
45071;BME280;30836;48.906;9.140;2022-08-11T00:13:18;990.28;;;26.37;28.49
45071;BME280;30836;48.906;9.140;2022-08-11T00:14:24;990.30;;;26.31;28.67
45071;BME280;30836;48.906;9.140;2022-08-11T00:15:35;990.28;;;26.27;28.55
45071;BME280;30836;48.906;9.140;2022-08-11T00:16:37;990.28;;;26.25;28.78
45071;BME280;30836;48.906;9.140;2022-08-11T00:17:39;990.26;;;26.23;28.70
45071;BME280;30836;48.906;9.140;2022-08-11T00:18:44;990.28;;;26.21;28.87
45071;BME280;30836;48.906;9.140;2022-08-11T00:19:50;990.28;;;26.19;28.75
45071;BME280;30836;48.906;9.140;2022-08-11T00:20:51;990.28;;;26.18;28.69
45071;BME280;30836;48.906;9.140;2022-08-11T00:21:57;990.30;;;26.16;28.73
45071;BME280;30836;48.906;9.140;2022-08-11T00:23:06;990.28;;;26.14;28.84
45071;BME280;30836;48.906;9.140;2022-08-11T00:24:09;990.30;;;26.12;28.94
45071;BME280;30836;48.906;9.140;2022-08-11T00:25:10;990.30;;;26.10;28.84
45071;BME280;30836;48.906;9.140;2022-08-11T00:26:16;990.26;;;26.08;28.79
45071;BME280;30836;48.906;9.140;2022-08-11T00:27:18;990.28;;;26.05;28.99
45071;BME280;30836;48.906;9.140;2022-08-11T00:28:22;990.30;;;26.03;28.92
45071;BME280;30836;48.906;9.140;2022-08-11T00:29:26;990.30;;;26.01;28.92
45071;BME280;30836;48.906;9.140;2022-08-11T00:30:26;990.30;;;25.99;28.96
45071;BME280;30836;48.906;9.140;2022-08-11T00:31:37;990.32;;;25.98;28.94
45071;BME280;30836;48.906;9.140;2022-08-11T00:32:51;990.34;;;25.97;29.00
45071;BME280;30836;48.906;9.140;2022-08-11T00:33:54;990.36;;;25.96;28.97
45071;BME280;30836;48.906;9.140;2022-08-11T00:34:59;990.36;;;25.98;28.97
45071;BME280;30836;48.906;9.140;2022-08-11T00:36:02;990.38;;;25.99;29.11
45071;BME280;30836;48.906;9.140;2022-08-11T00:37:05;990.38;;;25.98;29.09
45071;BME280;30836;48.906;9.140;2022-08-11T00:38:11;990.40;;;25.97;29.11
45071;BME280;30836;48.906;9.140;2022-08-11T00:39:12;990.40;;;25.96;29.22
45071;BME280;30836;48.906;9.140;2022-08-11T00:40:32;990.36;;;25.95;29.13
45071;BME280;30836;48.906;9.140;2022-08-11T00:48:37;990.46;;;26.63;28.05
45071;BME280;30836;48.906;9.140;2022-08-11T00:49:44;990.42;;;26.72;27.89
45071;BME280;30836;48.906;9.140;2022-08-11T00:56:59;990.38;;;26.98;27.60
45071;BME280;30836;48.906;9.140;2022-08-11T01:06:45;990.40;;;26.95;28.09
45071;BME280;30836;48.906;9.140;2022-08-11T01:33:03;990.40;;;26.41;29.44
45071;BME280;30836;48.906;9.140;2022-08-11T01:46:38;990.28;;;26.07;30.00
45071;BME280;30836;48.906;9.140;2022-08-11T01:52:28;990.28;;;25.93;30.26
45071;BME280;30836;48.906;9.140;2022-08-11T02:00:28;990.40;;;25.77;30.75
45071;BME280;30836;48.906;9.140;2022-08-11T02:02:44;990.42;;;25.70;30.65
45071;BME280;30836;48.906;9.140;2022-08-11T02:05:06;990.34;;;25.64;30.47
45071;BME280;30836;48.906;9.140;2022-08-11T02:12:07;990.30;;;25.60;30.34
45071;BME280;30836;48.906;9.140;2022-08-11T02:15:34;990.36;;;25.63;30.41
45071;BME280;30836;48.906;9.140;2022-08-11T02:20:27;990.28;;;25.62;30.55
45071;BME280;30836;48.906;9.140;2022-08-11T02:21:41;990.26;;;25.59;30.89
45071;BME280;30836;48.906;9.140;2022-08-11T02:23:50;990.26;;;25.48;30.99
45071;BME280;30836;48.906;9.140;2022-08-11T02:25:36;990.28;;;25.43;31.03
45071;BME280;30836;48.906;9.140;2022-08-11T02:27:20;990.28;;;25.37;31.23
45071;BME280;30836;48.906;9.140;2022-08-11T02:29:34;990.28;;;25.34;31.31
45071;BME280;30836;48.906;9.140;2022-08-11T02:30:50;990.26;;;25.31;31.38
45071;BME280;30836;48.906;9.140;2022-08-11T02:35:28;990.20;;;25.12;31.58
45071;BME280;30836;48.906;9.140;2022-08-11T02:36:40;990.22;;;25.07;31.72
45071;BME280;30836;48.906;9.140;2022-08-11T02:37:49;990.24;;;25.02;31.75
45071;BME280;30836;48.906;9.140;2022-08-11T02:39:02;990.24;;;24.99;31.78
45071;BME280;30836;48.906;9.140;2022-08-11T02:41:27;990.24;;;24.94;31.83
45071;BME280;30836;48.906;9.140;2022-08-11T02:43:44;990.22;;;24.88;31.80
45071;BME280;30836;48.906;9.140;2022-08-11T02:46:15;990.24;;;24.80;31.94
45071;BME280;30836;48.906;9.140;2022-08-11T02:48:38;990.20;;;24.68;32.39
45071;BME280;30836;48.906;9.140;2022-08-11T02:53:15;990.20;;;24.50;32.67
45071;BME280;30836;48.906;9.140;2022-08-11T02:58:29;990.22;;;24.44;32.66
45071;BME280;30836;48.906;9.140;2022-08-11T02:59:02;990.24;;;24.44;32.69
45071;BME280;30836;48.906;9.140;2022-08-11T03:00:05;990.26;;;24.43;32.92
45071;BME280;30836;48.906;9.140;2022-08-11T03:03:31;990.28;;;24.38;33.37
45071;BME280;30836;48.906;9.140;2022-08-11T03:04:44;990.26;;;24.36;33.16
45071;BME280;30836;48.906;9.140;2022-08-11T03:05:52;990.28;;;24.35;33.24
45071;BME280;30836;48.906;9.140;2022-08-11T03:07:00;990.30;;;24.34;33.27
45071;BME280;30836;48.906;9.140;2022-08-11T03:14:58;990.26;;;24.16;33.49
45071;BME280;30836;48.906;9.140;2022-08-11T03:20:50;990.28;;;24.04;33.74
45071;BME280;30836;48.906;9.140;2022-08-11T03:24:28;990.30;;;23.95;33.83
45071;BME280;30836;48.906;9.140;2022-08-11T03:30:24;990.28;;;23.86;33.85
45071;BME280;30836;48.906;9.140;2022-08-11T03:34:26;990.30;;;23.78;34.10
45071;BME280;30836;48.906;9.140;2022-08-11T03:35:30;990.36;;;23.77;33.98
45071;BME280;30836;48.906;9.140;2022-08-11T03:37:59;990.40;;;23.77;33.88
45071;BME280;30836;48.906;9.140;2022-08-11T03:43:51;990.46;;;23.70;33.92
45071;BME280;30836;48.906;9.140;2022-08-11T03:48:18;990.51;;;23.47;34.86
45071;BME280;30836;48.906;9.140;2022-08-11T03:49:28;990.51;;;23.29;35.46
45071;BME280;30836;48.906;9.140;2022-08-11T03:55:09;990.47;;;22.24;37.09
45071;BME280;30836;48.906;9.140;2022-08-11T03:57:40;990.47;;;22.04;37.27
45071;BME280;30836;48.906;9.140;2022-08-11T04:07:11;990.46;;;21.75;37.81
45071;BME280;30836;48.906;9.140;2022-08-11T04:08:14;990.46;;;21.74;37.72
45071;BME280;30836;48.906;9.140;2022-08-11T04:28:29;990.46;;;21.51;38.69
45071;BME280;30836;48.906;9.140;2022-08-11T04:42:14;990.53;;;21.58;38.75
45071;BME280;30836;48.906;9.140;2022-08-11T04:54:56;990.55;;;21.62;38.70
45071;BME280;30836;48.906;9.140;2022-08-11T04:56:02;990.55;;;21.63;38.62
45071;BME280;30836;48.906;9.140;2022-08-11T04:57:08;990.55;;;21.65;38.62
45071;BME280;30836;48.906;9.140;2022-08-11T05:00:29;990.57;;;21.72;38.77
45071;BME280;30836;48.906;9.140;2022-08-11T05:02:42;990.65;;;21.82;38.53
45071;BME280;30836;48.906;9.140;2022-08-11T05:13:01;990.67;;;22.11;38.19
45071;BME280;30836;48.906;9.140;2022-08-11T05:15:15;990.67;;;22.19;38.02
45071;BME280;30836;48.906;9.140;2022-08-11T05:16:21;990.71;;;22.24;38.04
45071;BME280;30836;48.906;9.140;2022-08-11T05:17:30;990.69;;;22.30;37.99
45071;BME280;30836;48.906;9.140;2022-08-11T05:18:49;990.73;;;22.35;38.22
45071;BME280;30836;48.906;9.140;2022-08-11T05:19:51;990.69;;;22.39;38.24
45071;BME280;30836;48.906;9.140;2022-08-11T05:20:52;990.69;;;22.42;38.25
45071;BME280;30836;48.906;9.140;2022-08-11T05:21:56;990.71;;;22.44;38.06
45071;BME280;30836;48.906;9.140;2022-08-11T05:23:01;990.69;;;22.47;37.82
45071;BME280;30836;48.906;9.140;2022-08-11T05:24:08;990.71;;;22.56;37.29
45071;BME280;30836;48.906;9.140;2022-08-11T05:25:26;990.69;;;22.74;36.93
45071;BME280;30836;48.906;9.140;2022-08-11T05:26:26;990.67;;;22.89;36.61
45071;BME280;30836;48.906;9.140;2022-08-11T05:28:49;990.67;;;23.10;36.23
45071;BME280;30836;48.906;9.140;2022-08-11T05:30:56;990.67;;;23.33;36.01
45071;BME280;30836;48.906;9.140;2022-08-11T05:31:59;990.67;;;23.42;35.77
45071;BME280;30836;48.906;9.140;2022-08-11T05:34:11;990.71;;;23.58;35.66
45071;BME280;30836;48.906;9.140;2022-08-11T05:35:25;990.73;;;23.65;35.48
45071;BME280;30836;48.906;9.140;2022-08-11T05:36:35;990.75;;;23.73;35.36
45071;BME280;30836;48.906;9.140;2022-08-11T05:37:41;990.73;;;23.80;35.30
45071;BME280;30836;48.906;9.140;2022-08-11T05:38:48;990.71;;;23.88;35.18
45071;BME280;30836;48.906;9.140;2022-08-11T05:40:15;990.73;;;23.95;35.42
45071;BME280;30836;48.906;9.140;2022-08-11T05:41:04;990.73;;;24.02;35.12
45071;BME280;30836;48.906;9.140;2022-08-11T05:42:07;990.71;;;24.10;34.94
45071;BME280;30836;48.906;9.140;2022-08-11T05:43:10;990.77;;;24.15;34.61
45071;BME280;30836;48.906;9.140;2022-08-11T05:44:17;990.75;;;24.19;34.58
45071;BME280;30836;48.906;9.140;2022-08-11T05:45:19;990.75;;;24.23;34.52
45071;BME280;30836;48.906;9.140;2022-08-11T05:46:21;990.75;;;24.29;34.37
45071;BME280;30836;48.906;9.140;2022-08-11T05:47:24;990.75;;;24.34;34.35
45071;BME280;30836;48.906;9.140;2022-08-11T05:48:29;990.77;;;24.37;34.29
45071;BME280;30836;48.906;9.140;2022-08-11T05:49:33;990.79;;;24.41;34.23
45071;BME280;30836;48.906;9.140;2022-08-11T05:50:34;990.79;;;24.44;34.24
45071;BME280;30836;48.906;9.140;2022-08-11T05:51:35;990.77;;;24.46;34.21
45071;BME280;30836;48.906;9.140;2022-08-11T05:52:38;990.79;;;24.51;34.12
45071;BME280;30836;48.906;9.140;2022-08-11T05:53:48;990.79;;;24.58;33.96
45071;BME280;30836;48.906;9.140;2022-08-11T05:54:53;990.77;;;24.67;33.91
45071;BME280;30836;48.906;9.140;2022-08-11T05:56:06;990.81;;;24.75;33.73
45071;BME280;30836;48.906;9.140;2022-08-11T05:57:07;990.79;;;24.83;33.40
45071;BME280;30836;48.906;9.140;2022-08-11T05:58:14;990.77;;;24.90;33.26
45071;BME280;30836;48.906;9.140;2022-08-11T05:59:16;990.79;;;24.95;33.09
45071;BME280;30836;48.906;9.140;2022-08-11T06:00:18;990.81;;;25.02;33.04
45071;BME280;30836;48.906;9.140;2022-08-11T06:02:26;990.79;;;25.08;32.92
45071;BME280;30836;48.906;9.140;2022-08-11T06:03:28;990.81;;;25.12;32.81
45071;BME280;30836;48.906;9.140;2022-08-11T06:04:31;990.79;;;25.19;32.86
45071;BME280;30836;48.906;9.140;2022-08-11T06:05:33;990.81;;;25.25;32.81
45071;BME280;30836;48.906;9.140;2022-08-11T06:06:36;990.79;;;25.31;32.59
45071;BME280;30836;48.906;9.140;2022-08-11T06:07:37;990.79;;;25.37;32.52
45071;BME280;30836;48.906;9.140;2022-08-11T06:08:37;990.77;;;25.44;32.35
45071;BME280;30836;48.906;9.140;2022-08-11T06:10:48;990.77;;;25.56;32.18
45071;BME280;30836;48.906;9.140;2022-08-11T06:11:48;990.75;;;25.62;32.19
45071;BME280;30836;48.906;9.140;2022-08-11T06:12:51;990.77;;;25.66;32.08
45071;BME280;30836;48.906;9.140;2022-08-11T06:13:53;990.75;;;25.70;32.00
45071;BME280;30836;48.906;9.140;2022-08-11T06:14:56;990.71;;;25.77;31.85
45071;BME280;30836;48.906;9.140;2022-08-11T06:15:07;990.73;;;25.81;31.84
45071;BME280;30836;48.906;9.140;2022-08-11T06:16:10;990.69;;;25.75;32.14
45071;BME280;30836;48.906;9.140;2022-08-11T06:17:13;990.69;;;25.59;32.41
45071;BME280;30836;48.906;9.140;2022-08-11T06:18:18;990.73;;;25.47;32.72
45071;BME280;30836;48.906;9.140;2022-08-11T06:19:20;990.73;;;25.36;32.94
45071;BME280;30836;48.906;9.140;2022-08-11T06:20:22;990.73;;;25.32;32.94
45071;BME280;30836;48.906;9.140;2022-08-11T06:21:24;990.73;;;25.34;32.88
45071;BME280;30836;48.906;9.140;2022-08-11T06:21:34;990.77;;;25.41;32.89
45071;BME280;30836;48.906;9.140;2022-08-11T06:22:35;990.73;;;25.44;32.76
45071;BME280;30836;48.906;9.140;2022-08-11T06:23:36;990.73;;;25.44;32.90
45071;BME280;30836;48.906;9.140;2022-08-11T06:24:41;990.77;;;25.41;33.03
45071;BME280;30836;48.906;9.140;2022-08-11T06:25:51;990.75;;;25.38;33.08
45071;BME280;30836;48.906;9.140;2022-08-11T06:26:07;990.77;;;25.33;33.06
45071;BME280;30836;48.906;9.140;2022-08-11T06:27:08;990.77;;;25.34;33.05
45071;BME280;30836;48.906;9.140;2022-08-11T06:28:09;990.75;;;25.35;33.08
45071;BME280;30836;48.906;9.140;2022-08-11T06:29:10;990.77;;;25.33;33.21
45071;BME280;30836;48.906;9.140;2022-08-11T06:30:11;990.77;;;25.33;33.21
45071;BME280;30836;48.906;9.140;2022-08-11T06:31:13;990.75;;;25.34;33.14
45071;BME280;30836;48.906;9.140;2022-08-11T06:32:19;990.77;;;25.34;33.18
45071;BME280;30836;48.906;9.140;2022-08-11T06:34:40;990.77;;;25.39;33.26
45071;BME280;30836;48.906;9.140;2022-08-11T06:35:50;990.75;;;25.39;33.29
45071;BME280;30836;48.906;9.140;2022-08-11T06:38:09;990.79;;;25.28;33.54
45071;BME280;30836;48.906;9.140;2022-08-11T06:39:17;990.79;;;25.18;33.81
45071;BME280;30836;48.906;9.140;2022-08-11T06:46:07;990.81;;;25.64;32.75
45071;BME280;30836;48.906;9.140;2022-08-11T06:47:28;990.75;;;26.03;32.38
45071;BME280;30836;48.906;9.140;2022-08-11T06:48:29;990.77;;;26.10;32.32
45071;BME280;30836;48.906;9.140;2022-08-11T06:49:33;990.77;;;26.14;32.26
45071;BME280;30836;48.906;9.140;2022-08-11T06:50:38;990.79;;;26.20;31.98
45071;BME280;30836;48.906;9.140;2022-08-11T06:51:39;990.75;;;26.28;31.97
45071;BME280;30836;48.906;9.140;2022-08-11T06:52:40;990.77;;;26.41;31.70
45071;BME280;30836;48.906;9.140;2022-08-11T06:52:51;990.81;;;26.64;31.67
45071;BME280;30836;48.906;9.140;2022-08-11T06:53:53;990.77;;;26.68;31.39
45071;BME280;30836;48.906;9.140;2022-08-11T06:54:56;990.79;;;26.71;31.62
45071;BME280;30836;48.906;9.140;2022-08-11T06:56:04;990.77;;;26.73;31.40
45071;BME280;30836;48.906;9.140;2022-08-11T06:57:09;990.77;;;26.83;31.11
45071;BME280;30836;48.906;9.140;2022-08-11T06:58:15;990.79;;;26.96;30.85
45071;BME280;30836;48.906;9.140;2022-08-11T06:59:17;990.75;;;27.10;30.73
45071;BME280;30836;48.906;9.140;2022-08-11T07:00:19;990.77;;;27.25;30.56
45071;BME280;30836;48.906;9.140;2022-08-11T07:02:29;990.77;;;27.49;30.19
45071;BME280;30836;48.906;9.140;2022-08-11T07:03:36;990.77;;;27.63;30.04
45071;BME280;30836;48.906;9.140;2022-08-11T07:12:52;990.79;;;28.16;29.15
45071;BME280;30836;48.906;9.140;2022-08-11T07:13:58;990.75;;;28.26;29.16
45071;BME280;30836;48.906;9.140;2022-08-11T07:15:01;990.75;;;28.34;29.02
45071;BME280;30836;48.906;9.140;2022-08-11T07:16:05;990.73;;;28.42;29.02
45071;BME280;30836;48.906;9.140;2022-08-11T07:17:07;990.75;;;28.53;28.83
45071;BME280;30836;48.906;9.140;2022-08-11T07:19:26;990.71;;;28.77;28.62
45071;BME280;30836;48.906;9.140;2022-08-11T07:20:28;990.71;;;28.87;28.53
45071;BME280;30836;48.906;9.140;2022-08-11T07:21:31;990.71;;;28.94;28.52
45071;BME280;30836;48.906;9.140;2022-08-11T07:22:34;990.73;;;29.00;28.29
45071;BME280;30836;48.906;9.140;2022-08-11T07:23:36;990.69;;;29.02;28.06
45071;BME280;30836;48.906;9.140;2022-08-11T07:24:42;990.71;;;29.03;28.10
45071;BME280;30836;48.906;9.140;2022-08-11T07:25:50;990.69;;;29.09;28.12
45071;BME280;30836;48.906;9.140;2022-08-11T07:26:53;990.67;;;29.19;28.06
45071;BME280;30836;48.906;9.140;2022-08-11T07:29:04;990.67;;;29.31;27.75
45071;BME280;30836;48.906;9.140;2022-08-11T07:30:09;990.63;;;29.35;27.91
45071;BME280;30836;48.906;9.140;2022-08-11T07:31:11;990.63;;;29.42;27.86
45071;BME280;30836;48.906;9.140;2022-08-11T07:33:29;990.65;;;29.50;27.78
45071;BME280;30836;48.906;9.140;2022-08-11T07:34:36;990.65;;;29.51;27.81
45071;BME280;30836;48.906;9.140;2022-08-11T07:35:44;990.63;;;29.53;27.63
45071;BME280;30836;48.906;9.140;2022-08-11T07:36:52;990.65;;;29.56;27.57
45071;BME280;30836;48.906;9.140;2022-08-11T07:37:56;990.67;;;29.61;27.49
45071;BME280;30836;48.906;9.140;2022-08-11T07:39:00;990.65;;;29.63;27.49
45071;BME280;30836;48.906;9.140;2022-08-11T07:40:02;990.63;;;29.64;27.51
45071;BME280;30836;48.906;9.140;2022-08-11T07:41:03;990.65;;;29.68;27.50
45071;BME280;30836;48.906;9.140;2022-08-11T07:42:08;990.63;;;29.75;27.47
45071;BME280;30836;48.906;9.140;2022-08-11T07:43:11;990.65;;;29.76;27.54
45071;BME280;30836;48.906;9.140;2022-08-11T07:44:12;990.67;;;29.74;27.38
45071;BME280;30836;48.906;9.140;2022-08-11T07:45:15;990.63;;;29.78;27.28
45071;BME280;30836;48.906;9.140;2022-08-11T07:46:16;990.63;;;29.85;27.29
45071;BME280;30836;48.906;9.140;2022-08-11T07:47:18;990.59;;;29.93;27.18
45071;BME280;30836;48.906;9.140;2022-08-11T07:48:20;990.59;;;30.00;27.18
45071;BME280;30836;48.906;9.140;2022-08-11T07:49:21;990.55;;;30.08;27.08
45071;BME280;30836;48.906;9.140;2022-08-11T07:50:22;990.55;;;30.17;27.00
45071;BME280;30836;48.906;9.140;2022-08-11T07:51:23;990.59;;;30.26;26.85
45071;BME280;30836;48.906;9.140;2022-08-11T07:52:24;990.51;;;30.29;26.88
45071;BME280;30836;48.906;9.140;2022-08-11T07:53:29;990.55;;;30.30;26.89
45071;BME280;30836;48.906;9.140;2022-08-11T07:54:32;990.53;;;30.35;26.75
45071;BME280;30836;48.906;9.140;2022-08-11T07:55:35;990.53;;;30.38;26.52
45071;BME280;30836;48.906;9.140;2022-08-11T07:56:36;990.55;;;30.39;26.74
45071;BME280;30836;48.906;9.140;2022-08-11T07:57:37;990.55;;;30.45;26.57
45071;BME280;30836;48.906;9.140;2022-08-11T07:57:48;990.53;;;30.53;26.57
45071;BME280;30836;48.906;9.140;2022-08-11T07:58:49;990.51;;;30.53;26.60
45071;BME280;30836;48.906;9.140;2022-08-11T07:59:50;990.49;;;30.49;26.62
45071;BME280;30836;48.906;9.140;2022-08-11T08:00:55;990.47;;;30.42;26.80
45071;BME280;30836;48.906;9.140;2022-08-11T08:01:57;990.47;;;30.32;26.89
45071;BME280;30836;48.906;9.140;2022-08-11T08:02:59;990.46;;;30.25;27.06
45071;BME280;30836;48.906;9.140;2022-08-11T08:04:01;990.44;;;30.20;27.08
45071;BME280;30836;48.906;9.140;2022-08-11T08:05:03;990.44;;;30.16;27.17
45071;BME280;30836;48.906;9.140;2022-08-11T08:06:05;990.38;;;30.14;27.03
45071;BME280;30836;48.906;9.140;2022-08-11T08:06:16;990.36;;;30.10;27.08
45071;BME280;30836;48.906;9.140;2022-08-11T08:07:18;990.38;;;30.12;27.05
45071;BME280;30836;48.906;9.140;2022-08-11T08:08:20;990.40;;;30.13;27.08
45071;BME280;30836;48.906;9.140;2022-08-11T08:09:22;990.38;;;30.17;26.89
45071;BME280;30836;48.906;9.140;2022-08-11T08:10:24;990.40;;;30.31;26.67
45071;BME280;30836;48.906;9.140;2022-08-11T08:10:34;990.40;;;30.55;26.62
45071;BME280;30836;48.906;9.140;2022-08-11T08:11:37;990.42;;;30.54;26.66
45071;BME280;30836;48.906;9.140;2022-08-11T08:12:38;990.44;;;30.49;26.66
45071;BME280;30836;48.906;9.140;2022-08-11T08:13:41;990.44;;;30.39;27.17
45071;BME280;30836;48.906;9.140;2022-08-11T08:14:42;990.42;;;30.30;27.16
45071;BME280;30836;48.906;9.140;2022-08-11T08:15:43;990.38;;;30.37;26.85
45071;BME280;30836;48.906;9.140;2022-08-11T08:16:44;990.38;;;30.49;26.61
45071;BME280;30836;48.906;9.140;2022-08-11T08:17:45;990.38;;;30.59;26.39
45071;BME280;30836;48.906;9.140;2022-08-11T08:18:46;990.36;;;30.63;26.56
45071;BME280;30836;48.906;9.140;2022-08-11T08:19:47;990.36;;;30.63;26.73
45071;BME280;30836;48.906;9.140;2022-08-11T08:20:49;990.40;;;30.60;26.83
45071;BME280;30836;48.906;9.140;2022-08-11T08:21:50;990.38;;;30.54;26.89
45071;BME280;30836;48.906;9.140;2022-08-11T08:22:52;990.36;;;30.51;26.57
45071;BME280;30836;48.906;9.140;2022-08-11T08:23:55;990.40;;;30.55;26.57
45071;BME280;30836;48.906;9.140;2022-08-11T08:24:57;990.40;;;30.58;26.55
45071;BME280;30836;48.906;9.140;2022-08-11T08:25:59;990.40;;;30.58;26.68
45071;BME280;30836;48.906;9.140;2022-08-11T08:27:04;990.40;;;30.58;26.50
45071;BME280;30836;48.906;9.140;2022-08-11T08:28:06;990.38;;;30.61;26.40
45071;BME280;30836;48.906;9.140;2022-08-11T08:29:09;990.38;;;30.61;26.44
45071;BME280;30836;48.906;9.140;2022-08-11T08:30:13;990.36;;;30.54;26.82
45071;BME280;30836;48.906;9.140;2022-08-11T08:31:13;990.40;;;30.49;26.97
45071;BME280;30836;48.906;9.140;2022-08-11T08:32:15;990.38;;;30.43;27.02
45071;BME280;30836;48.906;9.140;2022-08-11T08:33:18;990.38;;;30.31;27.00
45071;BME280;30836;48.906;9.140;2022-08-11T08:34:22;990.40;;;30.21;26.88
45071;BME280;30836;48.906;9.140;2022-08-11T08:35:23;990.42;;;30.24;26.84
45071;BME280;30836;48.906;9.140;2022-08-11T08:36:24;990.42;;;30.28;26.94
45071;BME280;30836;48.906;9.140;2022-08-11T08:37:25;990.40;;;30.25;26.93
45071;BME280;30836;48.906;9.140;2022-08-11T08:38:26;990.42;;;30.22;26.87
45071;BME280;30836;48.906;9.140;2022-08-11T08:39:26;990.40;;;30.25;26.62
45071;BME280;30836;48.906;9.140;2022-08-11T08:40:28;990.40;;;30.30;26.58
45071;BME280;30836;48.906;9.140;2022-08-11T08:41:29;990.36;;;30.22;26.79
45071;BME280;30836;48.906;9.140;2022-08-11T08:42:32;990.34;;;30.02;26.92
45071;BME280;30836;48.906;9.140;2022-08-11T08:43:38;990.38;;;29.89;26.89
45071;BME280;30836;48.906;9.140;2022-08-11T08:44:44;990.38;;;29.86;26.56
45071;BME280;30836;48.906;9.140;2022-08-11T08:45:46;990.34;;;29.90;26.32
45071;BME280;30836;48.906;9.140;2022-08-11T08:46:47;990.32;;;29.96;26.36
45071;BME280;30836;48.906;9.140;2022-08-11T08:49:00;990.36;;;30.01;26.38
45071;BME280;30836;48.906;9.140;2022-08-11T08:50:07;990.34;;;30.04;26.19
45071;BME280;30836;48.906;9.140;2022-08-11T08:51:10;990.36;;;30.10;26.16
45071;BME280;30836;48.906;9.140;2022-08-11T08:52:13;990.34;;;30.18;25.96
45071;BME280;30836;48.906;9.140;2022-08-11T08:55:35;990.30;;;30.42;25.52
45071;BME280;30836;48.906;9.140;2022-08-11T08:56:36;990.28;;;30.45;25.60
45071;BME280;30836;48.906;9.140;2022-08-11T08:57:39;990.30;;;30.51;25.75
45071;BME280;30836;48.906;9.140;2022-08-11T08:58:42;990.34;;;30.57;25.62
45071;BME280;30836;48.906;9.140;2022-08-11T08:59:47;990.32;;;30.60;25.34
45071;BME280;30836;48.906;9.140;2022-08-11T09:00:49;990.30;;;30.56;25.49
45071;BME280;30836;48.906;9.140;2022-08-11T09:02:03;990.28;;;30.53;25.52
45071;BME280;30836;48.906;9.140;2022-08-11T09:03:02;990.30;;;30.64;24.95
45071;BME280;30836;48.906;9.140;2022-08-11T09:04:06;990.30;;;30.83;25.02
45071;BME280;30836;48.906;9.140;2022-08-11T09:05:07;990.32;;;31.01;24.85
45071;BME280;30836;48.906;9.140;2022-08-11T09:06:08;990.26;;;31.18;24.72
45071;BME280;30836;48.906;9.140;2022-08-11T09:07:13;990.26;;;31.27;24.47
45071;BME280;30836;48.906;9.140;2022-08-11T09:08:17;990.28;;;31.34;24.42
45071;BME280;30836;48.906;9.140;2022-08-11T09:09:19;990.30;;;31.43;24.14
45071;BME280;30836;48.906;9.140;2022-08-11T09:10:20;990.28;;;31.49;24.20
45071;BME280;30836;48.906;9.140;2022-08-11T09:11:22;990.28;;;31.57;23.89
45071;BME280;30836;48.906;9.140;2022-08-11T09:13:30;990.32;;;31.64;24.01
45071;BME280;30836;48.906;9.140;2022-08-11T09:14:36;990.32;;;31.69;23.87
45071;BME280;30836;48.906;9.140;2022-08-11T09:15:38;990.30;;;31.71;24.05
45071;BME280;30836;48.906;9.140;2022-08-11T09:16:40;990.32;;;31.71;23.81
45071;BME280;30836;48.906;9.140;2022-08-11T09:17:44;990.32;;;31.74;23.79
45071;BME280;30836;48.906;9.140;2022-08-11T09:18:47;990.32;;;31.68;23.93
45071;BME280;30836;48.906;9.140;2022-08-11T09:19:51;990.32;;;31.62;23.58
45071;BME280;30836;48.906;9.140;2022-08-11T09:20:54;990.30;;;31.72;23.44
45071;BME280;30836;48.906;9.140;2022-08-11T09:21:55;990.28;;;31.79;23.28
45071;BME280;30836;48.906;9.140;2022-08-11T09:22:56;990.20;;;31.84;23.30
45071;BME280;30836;48.906;9.140;2022-08-11T09:23:58;990.18;;;31.87;23.28
45071;BME280;30836;48.906;9.140;2022-08-11T09:25:00;990.20;;;31.77;23.59
45071;BME280;30836;48.906;9.140;2022-08-11T09:26:01;990.24;;;31.60;23.61
45071;BME280;30836;48.906;9.140;2022-08-11T09:27:03;990.28;;;31.49;23.68
45071;BME280;30836;48.906;9.140;2022-08-11T09:28:09;990.24;;;31.48;23.77
45071;BME280;30836;48.906;9.140;2022-08-11T09:29:11;990.26;;;31.57;23.49
45071;BME280;30836;48.906;9.140;2022-08-11T09:30:12;990.28;;;31.65;23.32
45071;BME280;30836;48.906;9.140;2022-08-11T09:31:13;990.24;;;31.63;23.25
45071;BME280;30836;48.906;9.140;2022-08-11T09:32:14;990.22;;;31.58;23.37
45071;BME280;30836;48.906;9.140;2022-08-11T09:33:19;990.24;;;31.44;23.45
45071;BME280;30836;48.906;9.140;2022-08-11T09:34:22;990.26;;;31.38;23.30
45071;BME280;30836;48.906;9.140;2022-08-11T09:35:24;990.24;;;31.49;23.19
45071;BME280;30836;48.906;9.140;2022-08-11T09:36:26;990.28;;;31.64;23.07
45071;BME280;30836;48.906;9.140;2022-08-11T09:37:28;990.28;;;31.76;22.92
45071;BME280;30836;48.906;9.140;2022-08-11T09:38:29;990.28;;;31.83;22.70
45071;BME280;30836;48.906;9.140;2022-08-11T09:39:30;990.28;;;31.95;22.69
45071;BME280;30836;48.906;9.140;2022-08-11T09:39:44;990.28;;;32.19;22.65
45071;BME280;30836;48.906;9.140;2022-08-11T09:40:46;990.26;;;32.21;22.57
45071;BME280;30836;48.906;9.140;2022-08-11T09:41:48;990.24;;;32.24;22.61
45071;BME280;30836;48.906;9.140;2022-08-11T09:42:49;990.20;;;32.20;22.50
45071;BME280;30836;48.906;9.140;2022-08-11T09:43:50;990.26;;;32.08;22.48
45071;BME280;30836;48.906;9.140;2022-08-11T09:44:52;990.26;;;32.00;22.56